sensor_id;sensor_type;location;lat;lon;timestamp;pressure;altitude;pressure_sealevel;temperature;humidity
36192;BME280;22233;42.708;23.360;2023-05-29T00:01:18;95218.34;;;17.43;69.55
36192;BME280;22233;42.708;23.360;2023-05-29T00:03:44;95206.22;;;17.25;69.94
36192;BME280;22233;42.708;23.360;2023-05-29T00:06:10;95210.59;;;17.10;69.86
36192;BME280;22233;42.708;23.360;2023-05-29T00:08:35;95206.28;;;17.09;70.18
36192;BME280;22233;42.708;23.360;2023-05-29T00:11:01;95209.53;;;17.14;69.46
36192;BME280;22233;42.708;23.360;2023-05-29T00:13:26;95217.03;;;17.17;69.81
36192;BME280;22233;42.708;23.360;2023-05-29T00:15:52;95219.88;;;17.41;69.26
36192;BME280;22233;42.708;23.360;2023-05-29T00:18:17;95217.34;;;17.32;70.05
36192;BME280;22233;42.708;23.360;2023-05-29T00:20:43;95217.19;;;17.25;69.14
36192;BME280;22233;42.708;23.360;2023-05-29T00:23:08;95216.38;;;17.24;69.18
36192;BME280;22233;42.708;23.360;2023-05-29T00:25:35;95215.03;;;17.14;70.43
36192;BME280;22233;42.708;23.360;2023-05-29T00:28:00;95202.44;;;17.13;70.24
36192;BME280;22233;42.708;23.360;2023-05-29T00:30:26;95206.38;;;17.12;70.83
36192;BME280;22233;42.708;23.360;2023-05-29T00:32:51;95203.19;;;17.10;70.84
36192;BME280;22233;42.708;23.360;2023-05-29T00:35:17;95211.84;;;17.12;70.96
36192;BME280;22233;42.708;23.360;2023-05-29T00:37:43;95210.31;;;16.80;71.87
36192;BME280;22233;42.708;23.360;2023-05-29T00:40:09;95205.59;;;16.96;71.26
36192;BME280;22233;42.708;23.360;2023-05-29T00:42:35;95212.97;;;16.92;71.40
36192;BME280;22233;42.708;23.360;2023-05-29T00:45:00;95214.25;;;16.98;70.93
36192;BME280;22233;42.708;23.360;2023-05-29T00:47:26;95213.25;;;17.06;71.14
36192;BME280;22233;42.708;23.360;2023-05-29T00:49:52;95194.53;;;17.08;70.52
36192;BME280;22233;42.708;23.360;2023-05-29T00:52:19;95212.63;;;16.77;71.75
36192;BME280;22233;42.708;23.360;2023-05-29T00:54:45;95196.38;;;16.69;72.24
36192;BME280;22233;42.708;23.360;2023-05-29T00:57:12;95211.66;;;16.70;72.50
36192;BME280;22233;42.708;23.360;2023-05-29T00:59:39;95212.25;;;16.95;71.42
36192;BME280;22233;42.708;23.360;2023-05-29T01:02:06;95210.38;;;16.99;71.26
36192;BME280;22233;42.708;23.360;2023-05-29T01:04:31;95204.28;;;16.90;71.44
36192;BME280;22233;42.708;23.360;2023-05-29T01:07:00;95190.38;;;16.99;70.46
36192;BME280;22233;42.708;23.360;2023-05-29T01:09:27;95201.53;;;16.90;71.14
36192;BME280;22233;42.708;23.360;2023-05-29T01:12:03;95202.44;;;16.78;72.30
36192;BME280;22233;42.708;23.360;2023-05-29T01:25:50;95208.94;;;16.54;72.37
36192;BME280;22233;42.708;23.360;2023-05-29T01:28:26;95206.16;;;16.70;72.30
36192;BME280;22233;42.708;23.360;2023-05-29T01:30:54;95211.66;;;16.70;71.90
36192;BME280;22233;42.708;23.360;2023-05-29T01:33:20;95214.38;;;16.86;71.41
36192;BME280;22233;42.708;23.360;2023-05-29T01:35:45;95196.44;;;16.72;71.70
36192;BME280;22233;42.708;23.360;2023-05-29T01:38:11;95202.66;;;16.53;72.73
36192;BME280;22233;42.708;23.360;2023-05-29T01:40:37;95211.53;;;16.47;72.44
36192;BME280;22233;42.708;23.360;2023-05-29T01:43:03;95201.63;;;16.58;72.23
36192;BME280;22233;42.708;23.360;2023-05-29T01:45:29;95199.66;;;16.58;72.12
36192;BME280;22233;42.708;23.360;2023-05-29T01:47:55;95196.50;;;16.41;72.86
36192;BME280;22233;42.708;23.360;2023-05-29T01:50:23;95203.91;;;16.56;72.05
36192;BME280;22233;42.708;23.360;2023-05-29T01:52:49;95193.13;;;16.31;72.88
36192;BME280;22233;42.708;23.360;2023-05-29T01:55:14;95198.06;;;16.42;72.53
36192;BME280;22233;42.708;23.360;2023-05-29T01:57:40;95199.16;;;16.37;73.08
36192;BME280;22233;42.708;23.360;2023-05-29T02:00:07;95195.50;;;16.49;71.99
36192;BME280;22233;42.708;23.360;2023-05-29T02:02:40;95194.09;;;16.39;72.80
36192;BME280;22233;42.708;23.360;2023-05-29T02:05:08;95184.47;;;16.29;73.06
36192;BME280;22233;42.708;23.360;2023-05-29T02:07:34;95186.72;;;16.08;73.04
36192;BME280;22233;42.708;23.360;2023-05-29T02:10:02;95191.00;;;16.41;72.87
36192;BME280;22233;42.708;23.360;2023-05-29T02:12:28;95194.75;;;16.32;73.37
36192;BME280;22233;42.708;23.360;2023-05-29T02:14:53;95200.03;;;16.25;73.16
36192;BME280;22233;42.708;23.360;2023-05-29T02:17:19;95199.16;;;16.21;72.99
36192;BME280;22233;42.708;23.360;2023-05-29T02:19:45;95183.88;;;15.88;73.83
36192;BME280;22233;42.708;23.360;2023-05-29T02:22:12;95198.97;;;15.82;74.59
36192;BME280;22233;42.708;23.360;2023-05-29T02:24:37;95195.06;;;15.83;74.69
36192;BME280;22233;42.708;23.360;2023-05-29T02:27:03;95200.22;;;16.01;73.75
36192;BME280;22233;42.708;23.360;2023-05-29T02:29:28;95186.16;;;16.02;73.81
36192;BME280;22233;42.708;23.360;2023-05-29T02:31:54;95196.69;;;16.16;73.31
36192;BME280;22233;42.708;23.360;2023-05-29T02:34:20;95189.25;;;16.16;73.29
36192;BME280;22233;42.708;23.360;2023-05-29T02:36:48;95205.50;;;16.41;72.91
36192;BME280;22233;42.708;23.360;2023-05-29T02:39:13;95186.78;;;16.27;73.02
36192;BME280;22233;42.708;23.360;2023-05-29T02:41:39;95204.38;;;16.42;72.13
36192;BME280;22233;42.708;23.360;2023-05-29T02:44:04;95194.84;;;15.60;74.94
36192;BME280;22233;42.708;23.360;2023-05-29T02:46:30;95204.03;;;15.68;75.02
36192;BME280;22233;42.708;23.360;2023-05-29T02:48:56;95210.41;;;15.72;75.06
36192;BME280;22233;42.708;23.360;2023-05-29T02:51:21;95192.63;;;15.94;73.62
36192;BME280;22233;42.708;23.360;2023-05-29T02:53:46;95189.44;;;16.08;73.56
36192;BME280;22233;42.708;23.360;2023-05-29T02:56:13;95196.31;;;16.17;73.24
36192;BME280;22233;42.708;23.360;2023-05-29T02:58:41;95186.25;;;16.22;73.11
36192;BME280;22233;42.708;23.360;2023-05-29T03:01:06;95183.16;;;16.23;73.33
36192;BME280;22233;42.708;23.360;2023-05-29T03:03:33;95193.84;;;16.28;72.66
36192;BME280;22233;42.708;23.360;2023-05-29T03:05:58;95191.66;;;16.02;73.11
36192;BME280;22233;42.708;23.360;2023-05-29T03:08:24;95188.81;;;15.98;73.73
36192;BME280;22233;42.708;23.360;2023-05-29T03:10:51;95199.06;;;16.02;73.89
36192;BME280;22233;42.708;23.360;2023-05-29T03:13:17;95196.84;;;16.07;73.69
36192;BME280;22233;42.708;23.360;2023-05-29T03:15:44;95214.34;;;16.03;74.14
36192;BME280;22233;42.708;23.360;2023-05-29T03:18:09;95190.03;;;16.01;73.65
36192;BME280;22233;42.708;23.360;2023-05-29T03:20:35;95196.75;;;16.20;73.82
36192;BME280;22233;42.708;23.360;2023-05-29T03:23:01;95212.69;;;16.30;73.49
36192;BME280;22233;42.708;23.360;2023-05-29T03:25:26;95218.44;;;16.41;73.13
36192;BME280;22233;42.708;23.360;2023-05-29T03:27:51;95222.06;;;16.45;73.03
36192;BME280;22233;42.708;23.360;2023-05-29T03:30:17;95221.31;;;16.48;72.64
36192;BME280;22233;42.708;23.360;2023-05-29T03:32:44;95216.91;;;16.59;72.57
36192;BME280;22233;42.708;23.360;2023-05-29T03:35:10;95227.66;;;16.68;72.44
36192;BME280;22233;42.708;23.360;2023-05-29T03:37:35;95210.59;;;16.74;71.80
36192;BME280;22233;42.708;23.360;2023-05-29T03:40:01;95227.06;;;16.90;71.59
36192;BME280;22233;42.708;23.360;2023-05-29T03:42:26;95214.78;;;16.84;71.82
36192;BME280;22233;42.708;23.360;2023-05-29T03:44:51;95225.53;;;16.93;71.35
36192;BME280;22233;42.708;23.360;2023-05-29T03:47:17;95228.94;;;16.86;72.26
36192;BME280;22233;42.708;23.360;2023-05-29T03:49:42;95229.72;;;17.06;71.72
36192;BME280;22233;42.708;23.360;2023-05-29T03:52:08;95223.44;;;17.06;71.42
36192;BME280;22233;42.708;23.360;2023-05-29T03:54:33;95244.72;;;17.28;70.42
36192;BME280;22233;42.708;23.360;2023-05-29T03:56:58;95232.34;;;17.38;69.94
36192;BME280;22233;42.708;23.360;2023-05-29T03:59:24;95225.28;;;17.17;70.70
36192;BME280;22233;42.708;23.360;2023-05-29T04:01:50;95242.53;;;17.18;71.45
36192;BME280;22233;42.708;23.360;2023-05-29T04:04:15;95245.94;;;17.11;71.32
36192;BME280;22233;42.708;23.360;2023-05-29T04:06:40;95240.16;;;17.16;71.54
36192;BME280;22233;42.708;23.360;2023-05-29T04:09:06;95252.19;;;17.12;72.16
36192;BME280;22233;42.708;23.360;2023-05-29T04:11:35;95242.75;;;17.09;71.64
36192;BME280;22233;42.708;23.360;2023-05-29T04:14:01;95260.38;;;17.08;71.60
36192;BME280;22233;42.708;23.360;2023-05-29T04:16:27;95257.84;;;17.19;70.64
36192;BME280;22233;42.708;23.360;2023-05-29T04:18:54;95266.00;;;17.15;70.82
36192;BME280;22233;42.708;23.360;2023-05-29T04:21:19;95264.63;;;17.06;71.19
36192;BME280;22233;42.708;23.360;2023-05-29T04:23:44;95262.69;;;17.26;70.29
36192;BME280;22233;42.708;23.360;2023-05-29T04:26:10;95258.72;;;17.23;70.72
36192;BME280;22233;42.708;23.360;2023-05-29T04:28:35;95267.53;;;17.32;70.18
36192;BME280;22233;42.708;23.360;2023-05-29T04:31:02;95250.38;;;17.00;70.76
36192;BME280;22233;42.708;23.360;2023-05-29T04:33:28;95270.31;;;16.97;70.70
36192;BME280;22233;42.708;23.360;2023-05-29T04:35:54;95265.81;;;16.89;71.88
36192;BME280;22233;42.708;23.360;2023-05-29T04:38:20;95256.06;;;16.75;71.57
36192;BME280;22233;42.708;23.360;2023-05-29T04:40:51;95276.50;;;16.78;72.14
36192;BME280;22233;42.708;23.360;2023-05-29T04:43:16;95275.59;;;16.74;72.60
36192;BME280;22233;42.708;23.360;2023-05-29T04:45:42;95270.22;;;16.62;72.28
36192;BME280;22233;42.708;23.360;2023-05-29T04:48:07;95265.00;;;16.72;73.00
36192;BME280;22233;42.708;23.360;2023-05-29T04:50:33;95275.53;;;16.70;72.50
36192;BME280;22233;42.708;23.360;2023-05-29T04:52:59;95272.88;;;16.90;71.98
36192;BME280;22233;42.708;23.360;2023-05-29T04:55:25;95284.47;;;16.99;72.13
36192;BME280;22233;42.708;23.360;2023-05-29T04:57:51;95282.41;;;16.96;72.06
36192;BME280;22233;42.708;23.360;2023-05-29T05:00:17;95291.09;;;16.98;71.95
36192;BME280;22233;42.708;23.360;2023-05-29T05:02:43;95286.84;;;17.01;71.78
36192;BME280;22233;42.708;23.360;2023-05-29T05:05:09;95296.13;;;16.96;72.45
36192;BME280;22233;42.708;23.360;2023-05-29T05:07:35;95301.19;;;16.94;72.55
36192;BME280;22233;42.708;23.360;2023-05-29T05:10:04;95295.72;;;16.30;73.99
36192;BME280;22233;42.708;23.360;2023-05-29T05:12:29;95294.91;;;16.14;74.23
36192;BME280;22233;42.708;23.360;2023-05-29T05:14:55;95308.63;;;16.62;73.41
36192;BME280;22233;42.708;23.360;2023-05-29T05:17:21;95303.84;;;16.74;73.19
36192;BME280;22233;42.708;23.360;2023-05-29T05:19:47;95311.00;;;16.79;72.60
36192;BME280;22233;42.708;23.360;2023-05-29T05:22:14;95308.91;;;16.88;72.00
36192;BME280;22233;42.708;23.360;2023-05-29T05:24:40;95310.41;;;16.86;71.99
36192;BME280;22233;42.708;23.360;2023-05-29T05:27:05;95297.13;;;16.88;71.72
36192;BME280;22233;42.708;23.360;2023-05-29T05:29:31;95309.28;;;16.87;72.27
36192;BME280;22233;42.708;23.360;2023-05-29T05:31:57;95299.44;;;16.86;71.60
36192;BME280;22233;42.708;23.360;2023-05-29T05:34:22;95308.53;;;16.90;71.99
36192;BME280;22233;42.708;23.360;2023-05-29T05:36:48;95308.53;;;16.90;72.59
36192;BME280;22233;42.708;23.360;2023-05-29T05:39:14;95309.41;;;16.94;71.42
36192;BME280;22233;42.708;23.360;2023-05-29T05:41:40;95303.56;;;16.80;72.53
36192;BME280;22233;42.708;23.360;2023-05-29T05:44:05;95300.03;;;16.47;73.05
36192;BME280;22233;42.708;23.360;2023-05-29T05:46:30;95302.00;;;16.63;72.47
36192;BME280;22233;42.708;23.360;2023-05-29T05:48:56;95308.28;;;16.47;72.10
36192;BME280;22233;42.708;23.360;2023-05-29T05:51:26;95300.31;;;16.90;71.66
36192;BME280;22233;42.708;23.360;2023-05-29T05:53:52;95306.31;;;16.64;72.66
36192;BME280;22233;42.708;23.360;2023-05-29T05:56:17;95313.88;;;16.83;71.95
36192;BME280;22233;42.708;23.360;2023-05-29T05:58:43;95312.97;;;17.10;71.04
36192;BME280;22233;42.708;23.360;2023-05-29T06:01:08;95306.69;;;16.94;71.60
36192;BME280;22233;42.708;23.360;2023-05-29T06:03:34;95296.19;;;17.15;71.09
36192;BME280;22233;42.708;23.360;2023-05-29T06:06:00;95310.28;;;17.14;71.73
36192;BME280;22233;42.708;23.360;2023-05-29T06:08:25;95305.78;;;16.90;73.11
36192;BME280;22233;42.708;23.360;2023-05-29T06:10:51;95306.84;;;17.01;72.02
36192;BME280;22233;42.708;23.360;2023-05-29T06:13:16;95306.31;;;17.11;71.42
36192;BME280;22233;42.708;23.360;2023-05-29T06:15:42;95306.63;;;17.26;70.53
36192;BME280;22233;42.708;23.360;2023-05-29T06:18:08;95308.19;;;17.43;70.97
36192;BME280;22233;42.708;23.360;2023-05-29T06:20:33;95304.84;;;17.33;70.86
36192;BME280;22233;42.708;23.360;2023-05-29T06:22:59;95309.81;;;17.28;71.88
36192;BME280;22233;42.708;23.360;2023-05-29T06:25:24;95322.59;;;17.75;70.69
36192;BME280;22233;42.708;23.360;2023-05-29T06:28:01;95316.03;;;17.44;71.61
36192;BME280;22233;42.708;23.360;2023-05-29T06:30:27;95315.63;;;17.62;70.61
36192;BME280;22233;42.708;23.360;2023-05-29T06:32:52;95326.34;;;18.06;70.52
36192;BME280;22233;42.708;23.360;2023-05-29T06:35:18;95310.66;;;18.06;69.52
36192;BME280;22233;42.708;23.360;2023-05-29T06:37:45;95302.06;;;18.08;69.87
36192;BME280;22233;42.708;23.360;2023-05-29T06:40:11;95317.56;;;18.39;70.09
36192;BME280;22233;42.708;23.360;2023-05-29T06:42:37;95315.53;;;18.59;68.67
36192;BME280;22233;42.708;23.360;2023-05-29T06:45:02;95301.78;;;18.36;68.53
36192;BME280;22233;42.708;23.360;2023-05-29T06:47:28;95312.19;;;18.69;68.17
36192;BME280;22233;42.708;23.360;2023-05-29T06:49:53;95315.25;;;18.41;68.61
36192;BME280;22233;42.708;23.360;2023-05-29T06:52:19;95306.19;;;18.64;69.35
36192;BME280;22233;42.708;23.360;2023-05-29T06:54:44;95297.91;;;19.10;68.20
36192;BME280;22233;42.708;23.360;2023-05-29T06:57:10;95309.06;;;18.94;66.38
36192;BME280;22233;42.708;23.360;2023-05-29T06:59:35;95302.22;;;18.84;67.96
36192;BME280;22233;42.708;23.360;2023-05-29T07:02:01;95317.84;;;19.03;66.82
36192;BME280;22233;42.708;23.360;2023-05-29T07:04:26;95302.50;;;19.29;65.89
36192;BME280;22233;42.708;23.360;2023-05-29T07:06:51;95310.28;;;19.50;66.06
36192;BME280;22233;42.708;23.360;2023-05-29T07:09:17;95317.84;;;19.56;66.73
36192;BME280;22233;42.708;23.360;2023-05-29T07:11:43;95306.06;;;19.60;65.86
36192;BME280;22233;42.708;23.360;2023-05-29T07:14:08;95293.09;;;19.60;nan
36192;BME280;22233;42.708;23.360;2023-05-29T07:16:34;95319.81;;;19.56;64.34
36192;BME280;22233;42.708;23.360;2023-05-29T07:18:59;95280.91;;;19.31;65.33
36192;BME280;22233;42.708;23.360;2023-05-29T07:21:25;95311.69;;;19.67;64.90
36192;BME280;22233;42.708;23.360;2023-05-29T07:23:51;95317.75;;;19.80;65.04
36192;BME280;22233;42.708;23.360;2023-05-29T07:26:16;95319.22;;;20.04;64.14
36192;BME280;22233;42.708;23.360;2023-05-29T07:28:42;95307.03;;;20.05;64.25
36192;BME280;22233;42.708;23.360;2023-05-29T07:31:07;95284.53;;;20.37;63.04
36192;BME280;22233;42.708;23.360;2023-05-29T07:33:32;95301.50;;;20.80;61.99
36192;BME280;22233;42.708;23.360;2023-05-29T07:35:58;95310.63;;;20.87;61.00
36192;BME280;22233;42.708;23.360;2023-05-29T07:38:23;95306.94;;;21.17;59.83
36192;BME280;22233;42.708;23.360;2023-05-29T07:40:49;95309.06;;;20.90;61.01
36192;BME280;22233;42.708;23.360;2023-05-29T07:43:14;95309.38;;;20.78;62.16
36192;BME280;22233;42.708;23.360;2023-05-29T07:45:40;95300.16;;;20.59;62.00
36192;BME280;22233;42.708;23.360;2023-05-29T07:48:05;95310.25;;;20.48;61.97
36192;BME280;22233;42.708;23.360;2023-05-29T07:50:31;95308.63;;;20.81;61.92
36192;BME280;22233;42.708;23.360;2023-05-29T07:52:57;95297.03;;;20.64;61.24
36192;BME280;22233;42.708;23.360;2023-05-29T07:55:22;95289.34;;;20.88;60.83
36192;BME280;22233;42.708;23.360;2023-05-29T07:57:47;95301.41;;;20.69;60.88
36192;BME280;22233;42.708;23.360;2023-05-29T08:00:14;95298.75;;;20.80;61.62
36192;BME280;22233;42.708;23.360;2023-05-29T08:02:40;95285.00;;;20.87;60.89
36192;BME280;22233;42.708;23.360;2023-05-29T08:05:06;95303.63;;;20.97;59.98
36192;BME280;22233;42.708;23.360;2023-05-29T08:07:33;95308.72;;;20.50;61.69
36192;BME280;22233;42.708;23.360;2023-05-29T08:09:58;95285.66;;;20.69;60.88
36192;BME280;22233;42.708;23.360;2023-05-29T08:12:24;95303.94;;;20.88;60.12
36192;BME280;22233;42.708;23.360;2023-05-29T08:14:49;95309.97;;;21.01;60.60
36192;BME280;22233;42.708;23.360;2023-05-29T08:17:14;95291.47;;;21.09;59.67
36192;BME280;22233;42.708;23.360;2023-05-29T08:19:40;95302.78;;;21.48;60.08
36192;BME280;22233;42.708;23.360;2023-05-29T08:22:05;95302.53;;;21.75;58.99
36192;BME280;22233;42.708;23.360;2023-05-29T08:24:31;95305.75;;;21.84;57.91
36192;BME280;22233;42.708;23.360;2023-05-29T08:26:56;95306.53;;;21.88;57.48
36192;BME280;22233;42.708;23.360;2023-05-29T08:29:22;95278.91;;;21.99;55.28
36192;BME280;22233;42.708;23.360;2023-05-29T08:31:47;95306.75;;;22.42;53.91
36192;BME280;22233;42.708;23.360;2023-05-29T08:34:13;95301.22;;;22.46;53.24
36192;BME280;22233;42.708;23.360;2023-05-29T08:36:39;95309.56;;;22.60;53.48
36192;BME280;22233;42.708;23.360;2023-05-29T08:39:06;95311.16;;;23.01;52.16
36192;BME280;22233;42.708;23.360;2023-05-29T08:41:51;95304.44;;;23.09;51.68
36192;BME280;22233;42.708;23.360;2023-05-29T08:44:21;95278.69;;;23.01;51.49
36192;BME280;22233;42.708;23.360;2023-05-29T08:46:53;95301.28;;;23.18;51.21
36192;BME280;22233;42.708;23.360;2023-05-29T08:49:20;95291.38;;;23.17;50.72
36192;BME280;22233;42.708;23.360;2023-05-29T08:51:49;95283.09;;;23.20;50.19
36192;BME280;22233;42.708;23.360;2023-05-29T08:54:16;95264.50;;;23.06;50.98
36192;BME280;22233;42.708;23.360;2023-05-29T08:56:42;95294.13;;;22.95;50.28
36192;BME280;22233;42.708;23.360;2023-05-29T08:59:08;95276.75;;;23.09;50.72
36192;BME280;22233;42.708;23.360;2023-05-29T09:01:34;95283.84;;;23.39;48.74
36192;BME280;22233;42.708;23.360;2023-05-29T09:04:00;95268.78;;;23.43;49.07
36192;BME280;22233;42.708;23.360;2023-05-29T09:06:26;95278.28;;;23.31;49.21
36192;BME280;22233;42.708;23.360;2023-05-29T09:08:52;95268.81;;;22.82;50.16
36192;BME280;22233;42.708;23.360;2023-05-29T09:11:18;95272.75;;;22.99;49.74
36192;BME280;22233;42.708;23.360;2023-05-29T09:13:43;95272.75;;;22.99;49.55
36192;BME280;22233;42.708;23.360;2023-05-29T09:16:09;95273.56;;;23.28;49.26
36192;BME280;22233;42.708;23.360;2023-05-29T09:18:34;95274.34;;;23.22;49.50
36192;BME280;22233;42.708;23.360;2023-05-29T09:21:06;95262.84;;;23.41;48.90
36192;BME280;22233;42.708;23.360;2023-05-29T09:23:34;95262.75;;;23.70;49.30
36192;BME280;22233;42.708;23.360;2023-05-29T09:26:02;95264.34;;;23.71;50.05
36192;BME280;22233;42.708;23.360;2023-05-29T09:28:30;95258.34;;;23.76;50.08
36192;BME280;22233;42.708;23.360;2023-05-29T09:30:56;95243.28;;;23.84;49.82
36192;BME280;22233;42.708;23.360;2023-05-29T09:33:22;95247.91;;;24.16;47.51
36192;BME280;22233;42.708;23.360;2023-05-29T09:35:49;95261.47;;;23.96;48.40
36192;BME280;22233;42.708;23.360;2023-05-29T09:38:17;95249.59;;;23.96;48.41
36192;BME280;22233;42.708;23.360;2023-05-29T09:40:42;95243.25;;;23.99;47.81
36192;BME280;22233;42.708;23.360;2023-05-29T09:43:15;95233.38;;;23.90;47.12
36192;BME280;22233;42.708;23.360;2023-05-29T09:45:49;95240.91;;;23.86;49.77
36192;BME280;22233;42.708;23.360;2023-05-29T09:48:22;95237.63;;;24.13;48.78
36192;BME280;22233;42.708;23.360;2023-05-29T09:50:48;95223.31;;;24.18;47.56
36192;BME280;22233;42.708;23.360;2023-05-29T09:53:17;95230.84;;;24.18;48.02
36192;BME280;22233;42.708;23.360;2023-05-29T09:55:47;95223.31;;;24.18;48.97
36192;BME280;22233;42.708;23.360;2023-05-29T09:58:14;95229.84;;;24.49;47.25
36192;BME280;22233;42.708;23.360;2023-05-29T10:00:41;95223.34;;;24.70;46.95
36192;BME280;22233;42.708;23.360;2023-05-29T10:03:07;95220.19;;;24.68;45.80
36192;BME280;22233;42.708;23.360;2023-05-29T10:05:32;95207.06;;;24.72;47.33
36192;BME280;22233;42.708;23.360;2023-05-29T10:07:59;95206.69;;;24.70;48.47
36192;BME280;22233;42.708;23.360;2023-05-29T10:10:27;95235.41;;;24.53;45.94
36192;BME280;22233;42.708;23.360;2023-05-29T10:12:54;95221.06;;;23.95;46.03
36192;BME280;22233;42.708;23.360;2023-05-29T10:15:23;95218.41;;;24.37;45.31
36192;BME280;22233;42.708;23.360;2023-05-29T10:17:51;95214.25;;;24.70;45.62
36192;BME280;22233;42.708;23.360;2023-05-29T10:20:19;95221.88;;;25.04;45.05
36192;BME280;22233;42.708;23.360;2023-05-29T10:22:47;95216.88;;;24.88;45.14
36192;BME280;22233;42.708;23.360;2023-05-29T10:25:13;95219.00;;;24.73;45.14
36192;BME280;22233;42.708;23.360;2023-05-29T10:27:41;95224.72;;;24.97;44.69
36192;BME280;22233;42.708;23.360;2023-05-29T10:33:03;95208.34;;;25.09;44.35
36192;BME280;22233;42.708;23.360;2023-05-29T10:36:21;95207.78;;;24.84;44.63
36192;BME280;22233;42.708;23.360;2023-05-29T10:38:50;95214.47;;;24.90;44.31
36192;BME280;22233;42.708;23.360;2023-05-29T10:43:56;95213.53;;;24.59;45.62
36192;BME280;22233;42.708;23.360;2023-05-29T10:46:21;95212.94;;;24.26;45.73
36192;BME280;22233;42.708;23.360;2023-05-29T10:49:18;95205.66;;;24.54;46.27
36192;BME280;22233;42.708;23.360;2023-05-29T10:51:44;95200.00;;;24.64;45.65
36192;BME280;22233;42.708;23.360;2023-05-29T10:54:10;95193.41;;;24.92;45.52
36192;BME280;22233;42.708;23.360;2023-05-29T10:56:36;95185.56;;;25.25;44.22
36192;BME280;22233;42.708;23.360;2023-05-29T10:59:02;95180.03;;;25.22;44.18
36192;BME280;22233;42.708;23.360;2023-05-29T11:01:31;95177.59;;;25.62;43.07
36192;BME280;22233;42.708;23.360;2023-05-29T11:06:46;95168.91;;;25.56;44.15
36192;BME280;22233;42.708;23.360;2023-05-29T11:09:33;95154.94;;;25.29;44.24
36192;BME280;22233;42.708;23.360;2023-05-29T11:12:28;95171.34;;;25.16;43.63
36192;BME280;22233;42.708;23.360;2023-05-29T11:15:09;95178.72;;;24.92;44.21
36192;BME280;22233;42.708;23.360;2023-05-29T11:20:09;95165.84;;;24.71;44.58
36192;BME280;22233;42.708;23.360;2023-05-29T11:22:56;95169.38;;;24.75;44.85
36192;BME280;22233;42.708;23.360;2023-05-29T11:25:26;95153.16;;;24.66;44.13
36192;BME280;22233;42.708;23.360;2023-05-29T11:27:52;95152.53;;;24.44;44.01
36192;BME280;22233;42.708;23.360;2023-05-29T11:30:21;95160.94;;;24.86;44.96
36192;BME280;22233;42.708;23.360;2023-05-29T11:32:47;95152.75;;;25.09;42.55
36192;BME280;22233;42.708;23.360;2023-05-29T11:35:13;95148.63;;;25.25;42.03
36192;BME280;22233;42.708;23.360;2023-05-29T11:37:43;95158.75;;;25.42;42.69
36192;BME280;22233;42.708;23.360;2023-05-29T11:40:11;95164.88;;;25.61;41.61
36192;BME280;22233;42.708;23.360;2023-05-29T11:42:45;95137.56;;;25.18;42.64
36192;BME280;22233;42.708;23.360;2023-05-29T11:45:19;95158.81;;;25.35;42.97
36192;BME280;22233;42.708;23.360;2023-05-29T11:47:58;95164.09;;;25.29;43.15
36192;BME280;22233;42.708;23.360;2023-05-29T11:50:25;95155.41;;;25.55;43.10
36192;BME280;22233;42.708;23.360;2023-05-29T11:52:51;95172.66;;;25.73;42.44
36192;BME280;22233;42.708;23.360;2023-05-29T11:55:18;95170.66;;;25.43;43.15
36192;BME280;22233;42.708;23.360;2023-05-29T11:57:44;95177.72;;;25.13;46.18
36192;BME280;22233;42.708;23.360;2023-05-29T12:00:13;95168.69;;;24.60;48.54
36192;BME280;22233;42.708;23.360;2023-05-29T12:02:39;95178.41;;;24.30;49.31
36192;BME280;22233;42.708;23.360;2023-05-29T12:05:05;95175.25;;;24.28;49.64
36192;BME280;22233;42.708;23.360;2023-05-29T12:07:37;95195.41;;;24.40;51.40
36192;BME280;22233;42.708;23.360;2023-05-29T12:10:16;95209.63;;;23.86;55.98
36192;BME280;22233;42.708;23.360;2023-05-29T12:12:47;95210.66;;;22.75;58.86
36192;BME280;22233;42.708;23.360;2023-05-29T12:15:13;95205.16;;;22.61;58.10
36192;BME280;22233;42.708;23.360;2023-05-29T12:17:40;95202.75;;;22.59;59.01
36192;BME280;22233;42.708;23.360;2023-05-29T12:20:06;95204.69;;;22.23;59.52
36192;BME280;22233;42.708;23.360;2023-05-29T12:22:37;95191.25;;;22.10;57.56
36192;BME280;22233;42.708;23.360;2023-05-29T12:27:33;95223.59;;;21.88;59.43
36192;BME280;22233;42.708;23.360;2023-05-29T12:30:03;95221.25;;;22.01;59.48
36192;BME280;22233;42.708;23.360;2023-05-29T12:32:39;95205.34;;;21.62;59.79
36192;BME280;22233;42.708;23.360;2023-05-29T12:35:15;95216.47;;;21.84;61.05
36192;BME280;22233;42.708;23.360;2023-05-29T12:38:06;95210.50;;;21.71;61.85
36192;BME280;22233;42.708;23.360;2023-05-29T12:40:34;95188.59;;;21.30;60.56
36192;BME280;22233;42.708;23.360;2023-05-29T12:43:05;95202.13;;;21.53;58.96
36192;BME280;22233;42.708;23.360;2023-05-29T12:45:32;95203.00;;;21.75;58.69
36192;BME280;22233;42.708;23.360;2023-05-29T12:48:02;95205.47;;;22.02;57.27
36192;BME280;22233;42.708;23.360;2023-05-29T12:50:35;95193.22;;;22.21;60.63
36192;BME280;22233;42.708;23.360;2023-05-29T12:53:06;95203.53;;;22.27;59.69
36192;BME280;22233;42.708;23.360;2023-05-29T12:55:36;95181.81;;;22.37;58.37
36192;BME280;22233;42.708;23.360;2023-05-29T12:58:03;95199.22;;;22.55;58.28
36192;BME280;22233;42.708;23.360;2023-05-29T13:00:29;95202.75;;;22.73;59.35
36192;BME280;22233;42.708;23.360;2023-05-29T13:02:55;95189.31;;;23.04;59.22
36192;BME280;22233;42.708;23.360;2023-05-29T13:05:21;95202.31;;;23.22;57.31
36192;BME280;22233;42.708;23.360;2023-05-29T13:07:49;95192.81;;;23.26;55.55
36192;BME280;22233;42.708;23.360;2023-05-29T13:10:14;95193.47;;;23.56;55.78
36192;BME280;22233;42.708;23.360;2023-05-29T13:12:41;95187.88;;;23.70;55.49
36192;BME280;22233;42.708;23.360;2023-05-29T13:15:07;95178.13;;;24.14;54.46